Time,TemperatureF,DewpointF,PressureIn,WindDirection,WindDirectionDegrees,WindSpeedMPH,WindSpeedGustMPH,Humidity,HourlyPrecipIn,Conditions,Clouds,dailyrainin,SolarRadiationWatts/m^2,SoftwareType,DateUTC
2013-04-15 00:05:00,71.2,69.0,29.67,ESE,117,2.0,-999.0,94,-99.99,,,0.00,0,weatherlink.com 1.10,2013-04-15 05:05:00,
2013-04-15 00:20:00,71.0,69.0,29.66,SE,131,2.0,-999.0,94,-99.99,,,0.00,0,weatherlink.com 1.10,2013-04-15 05:20:00,
2013-04-15 00:35:00,70.8,69.0,29.67,South,174,2.0,-999.0,95,-99.99,,,0.00,0,weatherlink.com 1.10,2013-04-15 05:35:00,
2013-04-15 00:50:00,70.8,69.0,29.67,SSW,196,3.0,-999.0,95,-99.99,,,0.00,0,weatherlink.com 1.10,2013-04-15 05:50:00,
2013-04-15 01:05:00,70.8,69.0,29.67,South,184,3.0,-999.0,95,-99.99,,,0.00,0,weatherlink.com 1.10,2013-04-15 06:05:00,
2013-04-15 01:20:00,70.7,69.0,29.67,SSE,148,4.0,-999.0,95,-99.99,,,0.00,0,weatherlink.com 1.10,2013-04-15 06:20:00,
2013-04-15 01:35:00,70.6,69.0,29.67,East,88,1.0,-999.0,95,-99.99,,,0.00,0,weatherlink.com 1.10,2013-04-15 06:35:00,
2013-04-15 01:50:00,70.8,69.0,29.67,SSE,148,6.0,-999.0,95,-99.99,,,0.00,0,weatherlink.com 1.10,2013-04-15 06:50:00,
2013-04-15 02:05:00,71.0,70.0,29.67,South,171,4.0,-999.0,95,-99.99,,,0.00,0,weatherlink.com 1.10,2013-04-15 07:05:00,
2013-04-15 02:50:00,70.9,70.0,29.66,South,169,10.0,-999.0,95,-99.99,,,0.00,0,weatherlink.com 1.10,2013-04-15 07:50:00,
2013-04-15 03:05:00,71.0,70.0,29.66,South,182,7.0,-999.0,95,-99.99,,,0.00,0,weatherlink.com 1.10,2013-04-15 08:05:00,
2013-04-15 03:20:00,70.8,69.0,29.66,South,184,6.0,-999.0,94,-99.99,,,0.00,0,weatherlink.com 1.10,2013-04-15 08:20:00,
2013-04-15 03:35:00,70.7,69.0,29.66,South,184,7.0,-999.0,94,-99.99,,,0.00,0,weatherlink.com 1.10,2013-04-15 08:35:00,
2013-04-15 03:50:00,70.5,68.0,29.66,South,170,6.0,-999.0,93,-99.99,,,0.00,0,weatherlink.com 1.10,2013-04-15 08:50:00,
2013-04-15 04:05:00,70.5,68.0,29.66,SSW,194,11.0,-999.0,93,-99.99,,,0.00,0,weatherlink.com 1.10,2013-04-15 09:05:00,
2013-04-15 04:20:00,70.5,68.0,29.66,SSE,167,5.0,-999.0,93,-99.99,,,0.00,0,weatherlink.com 1.10,2013-04-15 09:20:00,
2013-04-15 04:35:00,70.4,68.0,29.66,SE,144,10.0,-999.0,93,-99.99,,,0.00,0,weatherlink.com 1.10,2013-04-15 09:35:00,
2013-04-15 04:50:00,70.6,68.0,29.67,SE,135,1.0,-999.0,92,-99.99,,,0.00,0,weatherlink.com 1.10,2013-04-15 09:50:00,
2013-04-15 05:05:00,70.6,68.0,29.67,SSE,168,4.0,-999.0,92,-99.99,,,0.00,0,weatherlink.com 1.10,2013-04-15 10:05:00,
2013-04-15 05:20:00,70.6,69.0,29.67,SSE,151,5.0,-999.0,93,-99.99,,,0.00,0,weatherlink.com 1.10,2013-04-15 10:20:00,
2013-04-15 05:35:00,70.8,68.0,29.67,ESE,120,4.0,-999.0,92,-99.99,,,0.00,0,weatherlink.com 1.10,2013-04-15 10:35:00,
2013-04-15 05:50:00,70.8,68.0,29.67,South,187,3.0,-999.0,92,-99.99,,,0.00,0,weatherlink.com 1.10,2013-04-15 10:50:00,
2013-04-15 06:05:00,71.4,69.0,29.67,SSE,153,1.0,-999.0,92,-99.99,,,0.00,0,weatherlink.com 1.10,2013-04-15 11:05:00,
2013-04-15 06:21:00,71.9,69.0,29.68,SSE,155,9.0,-999.0,91,-99.99,,,0.00,0,weatherlink.com 1.10,2013-04-15 11:21:00,
2013-04-15 06:36:00,72.1,69.0,29.68,SSE,166,9.0,-999.0,90,-99.99,,,0.00,0,weatherlink.com 1.10,2013-04-15 11:36:00,
2013-04-15 06:51:00,72.2,69.0,29.68,SSE,155,6.0,-999.0,90,-99.99,,,0.00,0,weatherlink.com 1.10,2013-04-15 11:51:00,
2013-04-15 07:06:00,72.3,69.0,29.68,ESE,105,3.0,-999.0,89,-99.99,,,0.00,0,weatherlink.com 1.10,2013-04-15 12:06:00,
2013-04-15 07:21:00,72.4,69.0,29.69,SSE,148,2.0,-999.0,89,-99.99,,,0.00,14,weatherlink.com 1.10,2013-04-15 12:21:00,
2013-04-15 07:51:00,72.9,69.0,29.70,SSE,150,3.0,-999.0,88,-99.99,,,0.00,40,weatherlink.com 1.10,2013-04-15 12:51:00,
2013-04-15 08:06:00,73.3,70.0,29.71,SSE,155,3.0,-999.0,88,-99.99,,,0.00,63,weatherlink.com 1.10,2013-04-15 13:06:00,
2013-04-15 08:51:00,74.6,70.0,29.72,SSE,163,4.0,-999.0,85,-99.99,,,0.00,114,weatherlink.com 1.10,2013-04-15 13:51:00,
2013-04-15 09:06:00,74.8,70.0,29.72,South,174,5.0,-999.0,85,-99.99,,,0.00,125,weatherlink.com 1.10,2013-04-15 14:06:00,
2013-04-15 09:21:00,74.6,70.0,29.72,SE,144,5.0,-999.0,86,-99.99,,,0.00,225,weatherlink.com 1.10,2013-04-15 14:21:00,
2013-04-15 09:36:00,75.1,70.0,29.72,South,175,7.0,-999.0,85,-99.99,,,0.00,121,weatherlink.com 1.10,2013-04-15 14:36:00,
2013-04-15 09:51:00,75.9,70.0,29.72,SSE,167,6.0,-999.0,83,-99.99,,,0.00,232,weatherlink.com 1.10,2013-04-15 14:51:00,
2013-04-15 10:06:00,76.9,70.0,29.73,SE,138,5.0,-999.0,80,-99.99,,,0.00,345,weatherlink.com 1.10,2013-04-15 15:06:00,
2013-04-15 10:21:00,78.2,70.0,29.73,SE,142,5.0,-999.0,77,-99.99,,,0.00,557,weatherlink.com 1.10,2013-04-15 15:21:00,
2013-04-15 10:36:00,79.8,71.0,29.72,ESE,108,9.0,-999.0,74,-99.99,,,0.00,250,weatherlink.com 1.10,2013-04-15 15:36:00,
2013-04-15 10:52:00,80.2,71.0,29.73,SSE,155,11.0,-999.0,73,-99.99,,,0.00,557,weatherlink.com 1.10,2013-04-15 15:52:00,
2013-04-15 11:06:00,79.4,71.0,29.73,NE,51,3.0,-999.0,75,-99.99,,,0.00,874,weatherlink.com 1.10,2013-04-15 16:06:00,
2013-04-15 11:21:00,80.1,70.0,29.73,ESE,120,4.0,-999.0,72,-99.99,,,0.00,466,weatherlink.com 1.10,2013-04-15 16:21:00,
2013-04-15 11:51:00,80.4,70.0,29.72,SSE,165,11.0,-999.0,71,-99.99,,,0.00,401,weatherlink.com 1.10,2013-04-15 16:51:00,
2013-04-15 12:22:00,80.9,71.0,29.72,SE,136,3.0,-999.0,72,-99.99,,,0.00,534,weatherlink.com 1.10,2013-04-15 17:22:00,
2013-04-15 12:52:00,82.4,72.0,29.71,SSE,164,6.0,-999.0,70,-99.99,,,0.00,1034,weatherlink.com 1.10,2013-04-15 17:52:00,
2013-04-15 13:07:00,81.8,71.0,29.71,SSE,165,4.0,-999.0,70,-99.99,,,0.00,369,weatherlink.com 1.10,2013-04-15 18:07:00,
2013-04-15 13:22:00,81.2,70.0,29.71,SE,137,7.0,-999.0,69,-99.99,,,0.00,510,weatherlink.com 1.10,2013-04-15 18:22:00,
2013-04-15 13:52:00,83.2,72.0,29.70,South,178,12.0,-999.0,68,-99.99,,,0.00,940,weatherlink.com 1.10,2013-04-15 18:52:00,
2013-04-15 14:07:00,83.9,72.0,29.69,SE,141,9.0,-999.0,67,-99.99,,,0.00,925,weatherlink.com 1.10,2013-04-15 19:07:00,
2013-04-15 14:22:00,83.6,72.0,29.69,SE,140,10.0,-999.0,68,-99.99,,,0.00,919,weatherlink.com 1.10,2013-04-15 19:22:00,
2013-04-15 14:37:00,83.4,71.0,29.69,SSE,151,7.0,-999.0,66,-99.99,,,0.00,889,weatherlink.com 1.10,2013-04-15 19:37:00,
2013-04-15 14:52:00,83.5,71.0,29.68,ESE,102,3.0,-999.0,67,-99.99,,,0.00,828,weatherlink.com 1.10,2013-04-15 19:52:00,
2013-04-15 15:07:00,84.2,72.0,29.68,SE,124,6.0,-999.0,67,-99.99,,,0.00,830,weatherlink.com 1.10,2013-04-15 20:07:00,
2013-04-15 15:22:00,83.5,71.0,29.68,North,355,5.0,-999.0,66,-99.99,,,0.00,814,weatherlink.com 1.10,2013-04-15 20:22:00,
2013-04-15 15:37:00,83.6,72.0,29.67,SSE,161,8.0,-999.0,67,-99.99,,,0.00,775,weatherlink.com 1.10,2013-04-15 20:37:00,
2013-04-15 15:52:00,84.0,71.0,29.66,SSW,200,10.0,-999.0,65,-99.99,,,0.00,738,weatherlink.com 1.10,2013-04-15 20:52:00,
2013-04-15 16:07:00,83.8,72.0,29.66,East,98,6.0,-999.0,67,-99.99,,,0.00,701,weatherlink.com 1.10,2013-04-15 21:07:00,
2013-04-15 16:22:00,82.7,72.0,29.66,ESE,107,15.0,-999.0,69,-99.99,,,0.00,652,weatherlink.com 1.10,2013-04-15 21:22:00,
2013-04-15 16:37:00,82.4,72.0,29.66,SE,125,10.0,-999.0,70,-99.99,,,0.00,619,weatherlink.com 1.10,2013-04-15 21:37:00,
2013-04-15 16:52:00,82.4,72.0,29.65,East,99,5.0,-999.0,70,-99.99,,,0.00,563,weatherlink.com 1.10,2013-04-15 21:52:00,
2013-04-15 17:07:00,82.1,72.0,29.64,SE,126,6.0,-999.0,71,-99.99,,,0.00,519,weatherlink.com 1.10,2013-04-15 22:07:00,
2013-04-15 17:22:00,81.4,72.0,29.64,ENE,69,3.0,-999.0,72,-99.99,,,0.00,475,weatherlink.com 1.10,2013-04-15 22:22:00,
2013-04-15 17:37:00,80.9,72.0,29.64,SSE,153,5.0,-999.0,73,-99.99,,,0.00,285,weatherlink.com 1.10,2013-04-15 22:37:00,
2013-04-15 17:52:00,80.0,71.0,29.65,ESE,122,10.0,-999.0,75,-99.99,,,0.00,225,weatherlink.com 1.10,2013-04-15 22:52:00,
2013-04-15 18:07:00,79.9,72.0,29.65,ESE,116,2.0,-999.0,76,-99.99,,,0.00,272,weatherlink.com 1.10,2013-04-15 23:07:00,
2013-04-15 18:22:00,78.8,71.0,29.64,SE,133,9.0,-999.0,78,-99.99,,,0.00,318,weatherlink.com 1.10,2013-04-15 23:22:00,
2013-04-15 18:37:00,78.8,72.0,29.65,ESE,117,4.0,-999.0,79,-99.99,,,0.00,155,weatherlink.com 1.10,2013-04-15 23:37:00,
2013-04-15 18:52:00,78.0,72.0,29.65,ESE,122,3.0,-999.0,81,-99.99,,,0.00,155,weatherlink.com 1.10,2013-04-15 23:52:00,
2013-04-15 19:07:00,77.4,72.0,29.65,East,101,4.0,-999.0,82,-99.99,,,0.00,95,weatherlink.com 1.10,2013-04-16 00:07:00,
2013-04-15 19:22:00,76.5,71.0,29.66,ESE,106,1.0,-999.0,84,-99.99,,,0.00,47,weatherlink.com 1.10,2013-04-16 00:22:00,
2013-04-15 19:37:00,75.7,71.0,29.66,SSE,149,5.0,-999.0,86,-99.99,,,0.00,18,weatherlink.com 1.10,2013-04-16 00:37:00,
2013-04-15 19:52:00,75.2,72.0,29.67,SE,131,3.0,-999.0,88,-99.99,,,0.00,5,weatherlink.com 1.10,2013-04-16 00:52:00,
2013-04-15 20:07:00,74.6,71.0,29.68,ESE,113,3.0,-999.0,89,-99.99,,,0.00,0,weatherlink.com 1.10,2013-04-16 01:07:00,
2013-04-15 20:22:00,74.2,71.0,29.69,SE,142,3.0,-999.0,90,-99.99,,,0.00,0,weatherlink.com 1.10,2013-04-16 01:22:00,
2013-04-15 20:37:00,74.2,72.0,29.70,East,96,4.0,-999.0,91,-99.99,,,0.00,0,weatherlink.com 1.10,2013-04-16 01:37:00,
2013-04-15 20:52:00,73.7,71.0,29.71,SE,124,5.0,-999.0,91,-99.99,,,0.00,0,weatherlink.com 1.10,2013-04-16 01:52:00,
2013-04-15 21:07:00,73.3,71.0,29.71,SSE,167,12.0,-999.0,91,-99.99,,,0.00,0,weatherlink.com 1.10,2013-04-16 02:07:00,
2013-04-15 21:22:00,73.3,71.0,29.71,ESE,120,8.0,-999.0,91,-99.99,,,0.00,0,weatherlink.com 1.10,2013-04-16 02:22:00,
2013-04-15 21:37:00,73.3,71.0,29.73,SE,132,3.0,-999.0,91,-99.99,,,0.00,0,weatherlink.com 1.10,2013-04-16 02:37:00,
2013-04-15 21:52:00,73.4,71.0,29.73,ESE,109,5.0,-999.0,91,-99.99,,,0.00,0,weatherlink.com 1.10,2013-04-16 02:52:00,
2013-04-15 22:07:00,73.3,71.0,29.74,NNW,335,5.0,-999.0,91,-99.99,,,0.00,0,weatherlink.com 1.10,2013-04-16 03:07:00,
2013-04-15 22:22:00,73.6,71.0,29.74,ENE,78,1.0,-999.0,91,-99.99,,,0.00,0,weatherlink.com 1.10,2013-04-16 03:22:00,
2013-04-15 22:37:00,73.7,71.0,29.74,South,181,3.0,-999.0,91,-99.99,,,0.00,0,weatherlink.com 1.10,2013-04-16 03:37:00,
2013-04-15 22:52:00,73.4,71.0,29.75,SSE,164,7.0,-999.0,91,-99.99,,,0.00,0,weatherlink.com 1.10,2013-04-16 03:52:00,
2013-04-15 23:07:00,73.3,71.0,29.75,SE,136,3.0,-999.0,91,-99.99,,,0.00,0,weatherlink.com 1.10,2013-04-16 04:07:00,
2013-04-15 23:22:00,73.3,71.0,29.75,SE,132,6.0,-999.0,91,-99.99,,,0.00,0,weatherlink.com 1.10,2013-04-16 04:22:00,
2013-04-15 23:37:00,73.3,71.0,29.76,South,177,5.0,-999.0,91,-99.99,,,0.00,0,weatherlink.com 1.10,2013-04-16 04:37:00,
2013-04-15 23:52:00,73.5,71.0,29.75,SSE,151,8.0,-999.0,90,-99.99,,,0.00,0,weatherlink.com 1.10,2013-04-16 04:52:00,